createdAt,value
2018-08-12T00:00:01.848Z,2.73
2018-08-12T00:02:30.700Z,2.70
2018-08-12T00:04:58.896Z,2.73
2018-08-12T00:07:28.930Z,2.90
2018-08-12T00:09:57.815Z,2.50
2018-08-12T00:12:26.604Z,3.00
2018-08-12T00:14:54.808Z,2.70
2018-08-12T00:17:23.014Z,2.80
2018-08-12T00:19:51.254Z,2.70
2018-08-12T00:22:19.472Z,2.97
2018-08-12T00:24:47.676Z,3.20
2018-08-12T00:27:15.920Z,3.08
2018-08-12T00:29:44.121Z,3.50
2018-08-12T00:32:12.296Z,3.47
2018-08-12T00:34:40.483Z,2.87
2018-08-12T00:37:09.161Z,3.73
2018-08-12T00:39:37.334Z,3.40
2018-08-12T00:42:05.573Z,3.43
2018-08-12T00:44:33.754Z,3.03
2018-08-12T00:47:02.041Z,3.33
2018-08-12T00:49:30.211Z,3.60
2018-08-12T00:51:58.404Z,3.58
2018-08-12T00:54:26.610Z,2.83
2018-08-12T00:56:54.838Z,3.00
2018-08-12T00:59:23.057Z,3.02
2018-08-12T01:01:51.269Z,3.23
2018-08-12T01:04:19.464Z,3.47
2018-08-12T01:06:47.687Z,3.12
2018-08-12T01:09:15.871Z,3.40
2018-08-12T01:11:44.076Z,3.27
2018-08-12T01:14:12.316Z,2.90
2018-08-12T01:16:40.519Z,3.30
2018-08-12T01:19:09.560Z,3.37
2018-08-12T01:21:37.776Z,3.30
2018-08-12T01:24:05.948Z,3.33
2018-08-12T01:26:34.156Z,3.80
2018-08-12T01:29:03.376Z,3.13
2018-08-12T01:31:31.543Z,3.58
2018-08-12T01:33:59.859Z,3.80
2018-08-12T01:36:28.075Z,3.87
2018-08-12T01:38:56.272Z,3.33
2018-08-12T01:41:24.465Z,4.07
2018-08-12T01:43:52.633Z,3.55
2018-08-12T01:46:20.826Z,3.37
2018-08-12T01:48:48.983Z,3.30
2018-08-12T01:51:17.175Z,3.45
2018-08-12T01:53:45.368Z,3.60
2018-08-12T01:56:13.551Z,3.03
2018-08-12T01:58:41.736Z,3.00
2018-08-12T02:01:09.891Z,3.03
2018-08-12T02:03:38.060Z,3.90
2018-08-12T02:06:06.232Z,3.40
2018-08-12T02:08:34.448Z,3.63
2018-08-12T02:11:02.675Z,3.07
2018-08-12T02:13:30.877Z,4.53
2018-08-12T02:15:59.078Z,3.80
2018-08-12T02:18:27.271Z,4.00
2018-08-12T02:20:55.458Z,3.77
2018-08-12T02:23:23.659Z,4.27
2018-08-12T02:25:51.855Z,3.27
2018-08-12T02:28:20.372Z,3.60
2018-08-12T02:30:48.563Z,3.87
2018-08-12T02:33:16.832Z,3.97
2018-08-12T02:35:44.994Z,4.15
2018-08-12T02:38:13.380Z,4.17
2018-08-12T02:40:41.593Z,4.12
2018-08-12T02:43:09.799Z,4.00
2018-08-12T02:45:38.000Z,4.10
2018-08-12T02:48:06.927Z,4.07
2018-08-12T02:50:35.127Z,4.27
2018-08-12T02:53:04.315Z,4.42
2018-08-12T02:55:32.535Z,4.30
2018-08-12T02:58:00.729Z,4.77
2018-08-12T03:00:28.934Z,4.00
2018-08-12T03:02:57.146Z,4.30
2018-08-12T03:05:26.174Z,4.37
2018-08-12T03:07:54.352Z,4.15
2018-08-12T03:10:22.553Z,4.08
2018-08-12T03:12:50.769Z,4.33
2018-08-12T03:15:18.976Z,4.67
2018-08-12T03:17:47.820Z,4.97
2018-08-12T03:20:16.053Z,5.17
2018-08-12T03:22:44.286Z,4.87
2018-08-12T03:25:12.482Z,4.70
2018-08-12T03:27:40.691Z,5.03
2018-08-12T03:30:10.073Z,5.20
2018-08-12T03:32:38.164Z,5.03
2018-08-12T03:35:06.392Z,4.93
2018-08-12T03:37:34.592Z,4.73
2018-08-12T03:40:02.759Z,4.63
2018-08-12T03:42:30.949Z,5.30
2018-08-12T03:44:59.163Z,5.80
2018-08-12T03:47:27.376Z,4.87
2018-08-12T03:49:55.563Z,4.53
2018-08-12T03:52:23.778Z,5.05
2018-08-12T03:54:52.007Z,4.80
2018-08-12T03:57:20.196Z,5.07
2018-08-12T03:59:48.443Z,5.03
2018-08-12T04:02:16.659Z,4.80
2018-08-12T04:04:44.849Z,4.97
2018-08-12T04:07:13.047Z,4.90
2018-08-12T04:09:41.224Z,4.50
2018-08-12T04:12:09.484Z,4.30
2018-08-12T04:14:37.669Z,4.80
2018-08-12T04:17:05.855Z,4.97
2018-08-12T04:19:34.042Z,4.97
2018-08-12T04:22:02.386Z,4.65
2018-08-12T04:24:30.628Z,4.53
2018-08-12T04:26:58.837Z,4.83
2018-08-12T04:29:27.012Z,4.67
2018-08-12T04:31:55.177Z,4.80
2018-08-12T04:34:23.363Z,4.53
2018-08-12T04:36:51.586Z,4.60
2018-08-12T04:39:19.760Z,4.43
2018-08-12T04:41:47.971Z,4.30
2018-08-12T04:44:16.167Z,4.05
2018-08-12T04:46:44.335Z,4.30
2018-08-12T04:49:12.515Z,4.07
2018-08-12T04:51:40.707Z,4.03
2018-08-12T04:54:08.883Z,4.30
2018-08-12T04:56:37.076Z,4.40
2018-08-12T04:59:05.447Z,4.00
2018-08-12T05:01:33.616Z,4.40
2018-08-12T05:04:01.831Z,4.60
2018-08-12T05:06:30.002Z,4.28
2018-08-12T05:08:58.215Z,4.30
2018-08-12T05:11:27.541Z,4.67
2018-08-12T05:13:55.780Z,4.33
2018-08-12T05:16:23.963Z,4.13
2018-08-12T05:18:52.220Z,3.90
2018-08-12T05:21:20.409Z,4.10
2018-08-12T05:23:48.619Z,4.10
2018-08-12T05:26:16.822Z,3.52
2018-08-12T05:28:45.920Z,3.73
2018-08-12T05:31:14.124Z,4.07
2018-08-12T05:33:42.423Z,4.00
2018-08-12T05:36:10.656Z,3.95
2018-08-12T05:38:38.815Z,4.43
2018-08-12T05:41:07.029Z,4.20
2018-08-12T05:43:35.238Z,4.08
2018-08-12T05:46:03.510Z,3.10
2018-08-12T05:48:31.714Z,3.50
2018-08-12T05:50:59.957Z,3.00
2018-08-12T05:53:28.145Z,3.03
2018-08-12T05:55:56.363Z,3.00
2018-08-12T05:58:25.386Z,2.80
2018-08-12T06:00:53.619Z,2.90
2018-08-12T06:03:21.827Z,2.83
2018-08-12T06:05:50.045Z,2.85
2018-08-12T06:08:18.256Z,2.77
2018-08-12T06:10:46.474Z,2.80
2018-08-12T06:13:14.733Z,2.85
2018-08-12T06:15:43.001Z,3.13
2018-08-12T06:18:11.131Z,3.00
2018-08-12T06:20:39.345Z,2.85
2018-08-12T06:23:07.543Z,3.17
2018-08-12T06:25:35.761Z,2.60
2018-08-12T06:28:03.944Z,2.90
2018-08-12T06:30:32.147Z,2.87
2018-08-12T06:33:00.360Z,3.20
2018-08-12T06:35:28.573Z,2.83
2018-08-12T06:37:56.828Z,2.90
2018-08-12T06:40:25.036Z,2.70
2018-08-12T06:42:53.280Z,2.80
2018-08-12T06:45:21.480Z,2.50
2018-08-12T06:47:49.671Z,2.93
2018-08-12T06:50:17.884Z,2.62
2018-08-12T06:52:46.086Z,2.80
2018-08-12T06:55:14.594Z,2.67
2018-08-12T06:57:43.495Z,3.20
2018-08-12T07:00:13.588Z,2.60
2018-08-12T07:02:41.772Z,2.37
2018-08-12T07:05:11.528Z,2.47
2018-08-12T07:07:40.404Z,2.33
2018-08-12T07:10:11.220Z,2.57
2018-08-12T07:12:39.507Z,2.57
2018-08-12T07:15:10.113Z,2.50
2018-08-12T07:17:38.774Z,2.43
2018-08-12T07:20:07.799Z,2.20
2018-08-12T07:22:36.380Z,2.70
2018-08-12T07:25:04.966Z,2.33
2018-08-12T07:27:33.164Z,2.53
2018-08-12T07:30:01.353Z,2.02
2018-08-12T07:32:29.487Z,2.30
2018-08-12T07:34:57.731Z,2.10
2018-08-12T07:37:25.927Z,2.05
2018-08-12T07:39:54.164Z,2.30
2018-08-12T07:42:22.340Z,2.13
2018-08-12T07:44:50.517Z,2.25
2018-08-12T07:47:18.700Z,2.10
2018-08-12T07:49:46.938Z,1.90
2018-08-12T07:52:15.098Z,1.90
2018-08-12T07:54:43.251Z,1.90
2018-08-12T07:57:11.546Z,1.90
2018-08-12T07:59:39.699Z,1.80
2018-08-12T08:02:07.863Z,2.07
2018-08-12T08:04:36.125Z,2.10
2018-08-12T08:07:04.360Z,1.98
2018-08-12T08:09:32.532Z,1.97
2018-08-12T08:12:00.737Z,1.73
2018-08-12T08:14:28.986Z,1.90
2018-08-12T08:16:57.159Z,1.90
2018-08-12T08:19:25.346Z,2.10
2018-08-12T08:21:53.549Z,2.10
2018-08-12T08:24:21.738Z,2.00
2018-08-12T08:26:49.929Z,1.83
2018-08-12T08:29:18.199Z,1.65
2018-08-12T08:31:46.594Z,1.60
2018-08-12T08:34:14.623Z,1.67
2018-08-12T08:36:42.811Z,1.42
2018-08-12T08:39:12.820Z,1.60
2018-08-12T08:41:40.994Z,1.40
2018-08-12T08:44:10.145Z,1.40
2018-08-12T08:46:38.340Z,1.75
2018-08-12T08:49:06.582Z,1.50
2018-08-12T08:51:34.795Z,1.40
2018-08-12T08:54:03.055Z,1.70
2018-08-12T08:56:31.251Z,1.42
2018-08-12T08:58:59.488Z,1.47
2018-08-12T09:01:27.831Z,1.60
2018-08-12T09:03:55.980Z,1.50
2018-08-12T09:06:24.237Z,1.50
2018-08-12T09:08:52.540Z,1.50
2018-08-12T09:11:20.653Z,1.40
2018-08-12T09:13:49.233Z,1.37
2018-08-12T09:16:17.412Z,1.40
2018-08-12T09:18:45.760Z,1.53
2018-08-12T09:21:13.913Z,1.50
2018-08-12T09:23:42.088Z,1.47
2018-08-12T09:26:10.297Z,1.33
2018-08-12T09:28:38.521Z,1.50
2018-08-12T09:31:06.859Z,1.43
2018-08-12T09:33:35.048Z,1.37
2018-08-12T09:36:03.339Z,1.32
2018-08-12T09:38:32.159Z,1.30
2018-08-12T09:41:00.379Z,1.30
2018-08-12T09:43:28.591Z,1.30
2018-08-12T09:45:56.794Z,1.30
2018-08-12T09:48:25.042Z,1.53
2018-08-12T09:50:53.236Z,1.40
2018-08-12T09:53:21.521Z,1.50
2018-08-12T09:55:49.772Z,1.40
2018-08-12T09:58:17.959Z,1.50
2018-08-12T10:00:46.140Z,1.50
2018-08-12T10:03:14.336Z,1.40
2018-08-12T10:05:43.860Z,1.60
2018-08-12T10:08:12.096Z,1.10
2018-08-12T10:10:40.327Z,1.27
2018-08-12T10:13:08.644Z,1.47
2018-08-12T10:15:36.895Z,1.50
2018-08-12T10:18:05.561Z,1.40
2018-08-12T10:20:33.915Z,1.67
2018-08-12T10:23:02.103Z,1.45
2018-08-12T10:25:30.357Z,1.20
2018-08-12T10:27:58.562Z,1.37
2018-08-12T10:30:26.815Z,1.60
2018-08-12T10:32:55.050Z,1.20
2018-08-12T10:35:24.147Z,1.50
2018-08-12T10:37:52.356Z,1.40
2018-08-12T10:40:21.193Z,1.27
2018-08-12T10:42:50.182Z,1.30
2018-08-12T10:45:18.420Z,1.53
2018-08-12T10:47:46.757Z,1.40
2018-08-12T10:50:17.895Z,1.42
2018-08-12T10:52:46.990Z,1.40
2018-08-12T10:55:16.795Z,1.40
2018-08-12T10:57:45.078Z,1.60
2018-08-12T11:00:18.146Z,1.57
2018-08-12T11:02:46.929Z,1.37
2018-08-12T11:05:15.847Z,1.50
2018-08-12T11:07:44.632Z,1.30
2018-08-12T11:10:13.312Z,1.57
2018-08-12T11:12:41.666Z,1.30
2018-08-12T11:15:10.500Z,1.40
2018-08-12T11:17:39.697Z,1.20
2018-08-12T11:20:08.349Z,1.20
2018-08-12T11:22:36.637Z,1.20
2018-08-12T11:25:05.416Z,1.40
2018-08-12T11:27:33.809Z,1.50
2018-08-12T11:30:02.036Z,1.20
2018-08-12T11:32:30.283Z,1.20
2018-08-12T11:34:59.087Z,1.20
2018-08-12T11:37:27.429Z,1.10
2018-08-12T11:39:55.612Z,1.35
2018-08-12T11:42:23.795Z,1.47
2018-08-12T11:44:52.015Z,1.20
2018-08-12T11:47:20.170Z,1.15
2018-08-12T11:49:48.347Z,1.30
2018-08-12T11:52:16.636Z,1.40
2018-08-12T11:54:45.131Z,1.20
2018-08-12T11:57:13.439Z,1.10
2018-08-12T11:59:41.604Z,1.30
2018-08-12T12:02:10.554Z,1.37
2018-08-12T12:04:38.800Z,1.40
2018-08-12T12:07:07.272Z,1.20
2018-08-12T12:09:36.014Z,1.23
2018-08-12T12:12:04.403Z,2.00
2018-08-12T12:14:32.738Z,1.40
2018-08-12T12:17:00.931Z,2.17
2018-08-12T12:19:29.148Z,1.40
2018-08-12T12:21:57.441Z,1.50
2018-08-12T12:24:25.954Z,1.20
2018-08-12T12:26:54.236Z,1.20
2018-08-12T12:29:22.499Z,1.20
2018-08-12T12:31:50.810Z,1.50
2018-08-12T12:34:19.837Z,1.30
2018-08-12T12:36:48.074Z,1.25
2018-08-12T12:39:16.928Z,1.42
2018-08-12T12:41:45.174Z,1.30
2018-08-12T12:44:13.362Z,1.40
2018-08-12T12:46:41.591Z,1.40
2018-08-12T12:49:09.803Z,1.53
2018-08-12T12:51:38.186Z,1.37
2018-08-12T12:54:06.406Z,1.15
2018-08-12T12:56:34.793Z,1.10
2018-08-12T12:59:03.107Z,1.30
2018-08-12T13:01:31.629Z,1.40
2018-08-12T13:03:59.877Z,1.20
2018-08-12T13:06:28.209Z,1.30
2018-08-12T13:08:56.540Z,1.40
2018-08-12T13:11:24.998Z,1.60
2018-08-12T13:13:54.446Z,1.43
2018-08-12T13:16:22.772Z,1.50
2018-08-12T13:18:51.027Z,1.40
2018-08-12T13:21:19.145Z,1.30
2018-08-12T13:23:47.316Z,1.33
2018-08-12T13:26:15.489Z,1.43
2018-08-12T13:28:43.640Z,1.20
2018-08-12T13:31:11.831Z,1.37
2018-08-12T13:33:40.943Z,1.50
2018-08-12T13:36:09.171Z,1.60
2018-08-12T13:38:37.367Z,1.20
2018-08-12T13:41:05.588Z,2.40
2018-08-12T13:43:33.827Z,1.53
2018-08-12T13:46:01.988Z,1.40
2018-08-12T13:48:30.146Z,1.20
2018-08-12T13:50:58.323Z,1.30
2018-08-12T13:53:26.573Z,1.40
2018-08-12T13:55:54.736Z,1.40
2018-08-12T13:58:22.912Z,1.37
2018-08-12T14:00:51.071Z,1.20
2018-08-12T14:03:19.256Z,1.40
2018-08-12T14:05:47.435Z,1.43
2018-08-12T14:08:15.668Z,1.35
2018-08-12T14:10:43.866Z,1.70
2018-08-12T14:13:12.071Z,1.37
2018-08-12T14:15:40.269Z,1.27
2018-08-12T14:18:09.242Z,1.50
2018-08-12T14:20:37.400Z,1.43
2018-08-12T14:23:05.659Z,1.47
2018-08-12T14:25:33.843Z,1.32
2018-08-12T14:28:02.010Z,1.30
2018-08-12T14:30:30.170Z,1.40
2018-08-12T14:32:58.332Z,1.40
2018-08-12T14:35:26.539Z,1.50
2018-08-12T14:37:54.723Z,1.40
2018-08-12T14:40:22.913Z,1.35
2018-08-12T14:42:51.089Z,1.30
2018-08-12T14:45:19.281Z,1.57
2018-08-12T14:47:47.561Z,1.77
2018-08-12T14:50:17.611Z,1.50
2018-08-12T14:52:45.795Z,1.53
2018-08-12T14:55:14.779Z,1.43
2018-08-12T14:57:43.592Z,1.60
2018-08-12T15:00:15.905Z,1.20
2018-08-12T15:02:44.876Z,1.33
2018-08-12T15:05:13.052Z,1.40
2018-08-12T15:07:41.243Z,1.40
2018-08-12T15:10:10.651Z,1.50
2018-08-12T15:12:39.255Z,1.30
2018-08-12T15:15:09.003Z,1.37
2018-08-12T15:17:37.893Z,1.30
2018-08-12T15:20:06.334Z,1.20
2018-08-12T15:22:34.895Z,1.42
2018-08-12T15:25:03.076Z,1.73
2018-08-12T15:27:31.350Z,1.50
2018-08-12T15:29:59.947Z,1.37
2018-08-12T15:32:28.649Z,1.30
2018-08-12T15:34:58.073Z,1.40
2018-08-12T15:37:26.457Z,1.40
2018-08-12T15:39:56.092Z,1.40
2018-08-12T15:42:24.850Z,1.20
2018-08-12T15:44:53.495Z,1.15
2018-08-12T15:47:22.578Z,1.47
2018-08-12T15:49:51.385Z,1.50
2018-08-12T15:52:19.661Z,1.40
2018-08-12T15:54:48.401Z,1.37
2018-08-12T15:57:16.995Z,1.30
2018-08-12T15:59:45.848Z,1.42
2018-08-12T16:02:14.394Z,1.35
2018-08-12T16:04:43.508Z,1.40
2018-08-12T16:07:11.976Z,1.32
2018-08-12T16:09:40.309Z,1.30
2018-08-12T16:12:09.449Z,1.40
2018-08-12T16:14:37.809Z,1.40
2018-08-12T16:17:06.300Z,1.20
2018-08-12T16:19:34.820Z,1.23
2018-08-12T16:22:03.468Z,1.40
2018-08-12T16:24:31.736Z,1.50
2018-08-12T16:27:00.219Z,1.20
2018-08-12T16:29:28.535Z,1.50
2018-08-12T16:31:57.932Z,1.50
2018-08-12T16:34:26.147Z,1.40
2018-08-12T16:36:54.420Z,1.23
2018-08-12T16:39:22.608Z,1.20
2018-08-12T16:41:50.796Z,1.57
2018-08-12T16:44:18.990Z,1.30
2018-08-12T16:46:47.192Z,1.55
2018-08-12T16:49:15.417Z,1.40
2018-08-12T16:51:43.624Z,1.20
2018-08-12T16:54:11.848Z,1.42
2018-08-12T16:56:40.083Z,1.40
2018-08-12T16:59:08.287Z,1.33
2018-08-12T17:01:36.512Z,1.40
2018-08-12T17:04:05.120Z,1.20
2018-08-12T17:06:33.765Z,1.20
2018-08-12T17:09:02.054Z,1.30
2018-08-12T17:11:30.293Z,1.30
2018-08-12T17:13:58.718Z,1.40
2018-08-12T17:16:27.123Z,1.32
2018-08-12T17:18:55.462Z,1.20
2018-08-12T17:21:23.732Z,1.40
2018-08-12T17:23:52.252Z,1.27
2018-08-12T17:26:20.522Z,1.30
2018-08-12T17:28:48.776Z,1.33
2018-08-12T17:31:17.014Z,1.40
2018-08-12T17:33:45.261Z,1.40
2018-08-12T17:36:13.562Z,1.33
2018-08-12T17:38:41.807Z,1.27
2018-08-12T17:41:10.289Z,1.30
2018-08-12T17:43:38.592Z,1.20
2018-08-12T17:46:06.874Z,1.30
2018-08-12T17:48:35.110Z,1.30
2018-08-12T17:51:03.322Z,1.47
2018-08-12T17:53:31.503Z,1.40
2018-08-12T17:55:59.769Z,1.20
2018-08-12T17:58:28.974Z,1.10
2018-08-12T18:00:57.313Z,1.30
2018-08-12T18:03:25.519Z,1.43
2018-08-12T18:05:53.695Z,1.42
2018-08-12T18:08:21.877Z,1.30
2018-08-12T18:10:50.088Z,1.30
2018-08-12T18:13:18.323Z,1.42
2018-08-12T18:15:46.547Z,1.30
2018-08-12T18:18:14.892Z,1.40
2018-08-12T18:20:43.230Z,1.55
2018-08-12T18:23:12.679Z,1.40
2018-08-12T18:25:40.872Z,1.77
2018-08-12T18:28:09.092Z,1.60
2018-08-12T18:30:37.334Z,1.47
2018-08-12T18:33:05.590Z,1.33
2018-08-12T18:35:34.133Z,1.20
2018-08-12T18:38:02.635Z,1.27
2018-08-12T18:40:30.883Z,1.50
2018-08-12T18:42:59.130Z,1.30
2018-08-12T18:45:27.314Z,1.50
2018-08-12T18:47:55.560Z,1.70
2018-08-12T18:50:23.760Z,1.40
2018-08-12T18:52:52.091Z,1.33
2018-08-12T18:55:20.293Z,1.45
2018-08-12T18:57:48.488Z,1.63
2018-08-12T19:00:16.724Z,1.37
2018-08-12T19:02:44.918Z,1.40
2018-08-12T19:05:13.575Z,1.30
2018-08-12T19:07:42.520Z,1.50
2018-08-12T19:10:11.819Z,1.60
2018-08-12T19:12:40.546Z,1.50
2018-08-12T19:15:09.928Z,1.42
2018-08-12T19:17:38.401Z,1.63
2018-08-12T19:20:07.312Z,1.50
2018-08-12T19:22:35.775Z,1.57
2018-08-12T19:25:04.448Z,1.60
2018-08-12T19:27:32.626Z,1.65
2018-08-12T19:30:00.838Z,1.60
2018-08-12T19:32:29.046Z,1.60
2018-08-12T19:34:57.227Z,1.30
2018-08-12T19:37:25.499Z,1.70
2018-08-12T19:39:53.699Z,1.70
2018-08-12T19:42:21.938Z,1.60
2018-08-12T19:44:50.148Z,1.80
2018-08-12T19:47:18.351Z,1.77
2018-08-12T19:49:46.536Z,1.50
2018-08-12T19:52:14.845Z,1.50
2018-08-12T19:54:43.855Z,1.60
2018-08-12T19:57:12.387Z,1.50
2018-08-12T19:59:40.621Z,1.57
2018-08-12T20:02:08.844Z,2.00
2018-08-12T20:04:37.072Z,1.80
2018-08-12T20:07:06.287Z,1.83
2018-08-12T20:09:34.485Z,1.95
2018-08-12T20:12:02.780Z,1.70
2018-08-12T20:14:31.076Z,1.77
2018-08-12T20:16:59.360Z,1.93
2018-08-12T20:19:27.577Z,1.77
2018-08-12T20:21:55.775Z,1.85
2018-08-12T20:24:23.982Z,1.90
2018-08-12T20:26:52.192Z,1.70
2018-08-12T20:29:20.404Z,1.67
2018-08-12T20:31:48.732Z,2.07
2018-08-12T20:34:16.943Z,1.70
2018-08-12T20:36:45.148Z,1.90
2018-08-12T20:39:13.709Z,1.57
2018-08-12T20:41:42.863Z,1.70
2018-08-12T20:44:11.077Z,1.70
2018-08-12T20:46:39.302Z,1.80
2018-08-12T20:49:07.471Z,1.60
2018-08-12T20:51:35.673Z,1.60
2018-08-12T20:54:03.872Z,2.00
2018-08-12T20:56:32.047Z,1.87
2018-08-12T20:59:00.244Z,1.70
2018-08-12T21:01:28.426Z,1.93
2018-08-12T21:03:56.631Z,1.70
2018-08-12T21:06:24.787Z,1.73
2018-08-12T21:08:52.980Z,1.67
2018-08-12T21:11:21.821Z,2.02
2018-08-12T21:13:50.024Z,1.80
2018-08-12T21:16:18.257Z,2.00
2018-08-12T21:18:46.423Z,1.45
2018-08-12T21:21:14.628Z,1.80
2018-08-12T21:23:42.832Z,1.60
2018-08-12T21:26:11.188Z,2.00
2018-08-12T21:28:39.282Z,1.70
2018-08-12T21:31:07.475Z,1.80
2018-08-12T21:33:35.801Z,1.90
2018-08-12T21:36:03.954Z,2.10
2018-08-12T21:38:32.175Z,2.03
2018-08-12T21:41:00.375Z,2.05
2018-08-12T21:43:28.570Z,1.90
2018-08-12T21:45:56.808Z,1.80
2018-08-12T21:48:25.028Z,1.82
2018-08-12T21:50:53.219Z,2.20
2018-08-12T21:53:21.451Z,1.80
2018-08-12T21:55:49.707Z,1.90
2018-08-12T21:58:17.840Z,2.10
2018-08-12T22:00:46.068Z,2.10
2018-08-12T22:03:14.269Z,1.98
2018-08-12T22:05:42.441Z,2.10
2018-08-12T22:08:10.675Z,1.90
2018-08-12T22:10:39.757Z,2.00
2018-08-12T22:13:08.708Z,2.00
2018-08-12T22:15:37.434Z,2.20
2018-08-12T22:18:07.455Z,2.02
2018-08-12T22:20:36.903Z,2.13
2018-08-12T22:23:05.385Z,1.90
2018-08-12T22:25:34.372Z,2.22
2018-08-12T22:28:03.311Z,2.22
2018-08-12T22:30:32.261Z,2.12
2018-08-12T22:33:00.530Z,1.82
2018-08-12T22:35:29.126Z,2.10
2018-08-12T22:37:57.329Z,2.20
2018-08-12T22:40:25.510Z,2.20
2018-08-12T22:42:53.776Z,2.10
2018-08-12T22:45:22.038Z,2.30
2018-08-12T22:47:50.230Z,2.13
2018-08-12T22:50:18.414Z,2.30
2018-08-12T22:52:46.574Z,1.90
2018-08-12T22:55:14.744Z,2.40
2018-08-12T22:57:42.997Z,2.17
2018-08-12T23:00:15.545Z,2.00
2018-08-12T23:02:43.715Z,2.10
2018-08-12T23:05:11.904Z,2.07
2018-08-12T23:07:40.136Z,2.30
2018-08-12T23:10:08.723Z,2.17
2018-08-12T23:12:36.927Z,2.15
2018-08-12T23:15:16.616Z,2.33
2018-08-12T23:17:44.815Z,2.40
2018-08-12T23:20:13.012Z,2.40
2018-08-12T23:22:41.184Z,2.25
2018-08-12T23:25:09.412Z,2.23
2018-08-12T23:27:37.617Z,2.50
2018-08-12T23:30:06.376Z,2.45
2018-08-12T23:32:34.592Z,2.30
2018-08-12T23:35:02.806Z,2.23
2018-08-12T23:37:30.979Z,2.10
2018-08-12T23:39:59.208Z,2.00
2018-08-12T23:42:27.385Z,2.53
2018-08-12T23:44:55.613Z,2.10
2018-08-12T23:47:23.829Z,2.33
2018-08-12T23:49:52.031Z,2.30
2018-08-12T23:52:20.263Z,2.10
2018-08-12T23:54:48.463Z,2.17
2018-08-12T23:57:16.712Z,2.20
2018-08-12T23:59:44.899Z,2.40
